createdAt,value
2022-12-03T00:02:07.820Z,12.82
2022-12-03T00:04:34.110Z,13.07
2022-12-03T00:07:01.767Z,17.25
2022-12-03T00:09:28.088Z,14.90
2022-12-03T00:11:54.380Z,13.23
2022-12-03T00:14:23.752Z,19.95
2022-12-03T00:16:50.046Z,12.13
2022-12-03T00:19:16.322Z,14.38
2022-12-03T00:21:42.626Z,14.48
2022-12-03T00:24:10.279Z,11.82
2022-12-03T00:26:36.568Z,13.85
2022-12-03T00:29:02.958Z,15.40
2022-12-03T00:31:29.273Z,16.95
2022-12-03T00:33:55.588Z,19.25
2022-12-03T00:36:21.905Z,11.43
2022-12-03T00:38:48.245Z,11.77
2022-12-03T00:41:15.855Z,15.35
2022-12-03T00:43:42.135Z,14.18
2022-12-03T00:46:08.468Z,14.27
2022-12-03T00:48:34.755Z,15.55
2022-12-03T00:51:01.048Z,13.38
2022-12-03T00:53:27.365Z,12.23
2022-12-03T00:55:53.647Z,11.30
2022-12-03T00:58:21.288Z,12.57
2022-12-03T01:00:47.547Z,10.40
2022-12-03T01:03:13.808Z,13.45
2022-12-03T01:05:40.123Z,16.15
2022-12-03T01:08:06.484Z,12.68
2022-12-03T01:10:32.832Z,13.07
2022-12-03T01:12:59.147Z,11.07
2022-12-03T01:15:26.795Z,14.60
2022-12-03T01:17:53.072Z,12.57
2022-12-03T01:20:19.542Z,16.10
2022-12-03T01:22:45.869Z,12.23
2022-12-03T01:25:12.576Z,11.65
2022-12-03T01:27:38.867Z,13.10
2022-12-03T01:30:05.996Z,14.02
2022-12-03T01:32:33.668Z,12.30
2022-12-03T01:35:00.078Z,13.10
2022-12-03T01:37:26.922Z,12.90
2022-12-03T01:39:53.408Z,12.55
2022-12-03T01:42:20.797Z,14.20
2022-12-03T01:44:47.752Z,12.13
2022-12-03T01:47:16.225Z,11.90
2022-12-03T01:49:44.968Z,12.98
2022-12-03T01:52:12.377Z,13.55
2022-12-03T01:54:40.096Z,12.30
2022-12-03T01:57:12.689Z,12.95
2022-12-03T01:59:39.178Z,9.55
2022-12-03T02:02:11.259Z,11.88
2022-12-03T02:04:37.637Z,9.10
2022-12-03T02:07:17.445Z,9.77
2022-12-03T02:09:43.749Z,9.68
2022-12-03T02:12:10.346Z,9.90
2022-12-03T02:14:36.753Z,9.93
2022-12-03T02:17:03.029Z,10.70
2022-12-03T02:19:29.454Z,10.73
2022-12-03T02:21:57.940Z,8.48
2022-12-03T02:24:28.965Z,10.27
2022-12-03T02:26:56.589Z,12.70
2022-12-03T02:31:50.771Z,12.75
2022-12-03T02:34:34.171Z,7.88
2022-12-03T02:37:00.880Z,7.68
2022-12-03T02:39:27.486Z,10.32
2022-12-03T02:41:53.794Z,14.80
2022-12-03T02:44:21.487Z,8.77
2022-12-03T02:46:47.872Z,7.93
2022-12-03T02:49:14.303Z,9.98
2022-12-03T02:51:40.585Z,9.48
2022-12-03T02:54:07.002Z,6.70
2022-12-03T02:56:33.306Z,7.63
2022-12-03T02:59:01.588Z,9.80
2022-12-03T03:01:29.341Z,8.73
2022-12-03T03:03:56.263Z,7.75
2022-12-03T03:06:22.675Z,8.35
2022-12-03T03:08:49.228Z,8.07
2022-12-03T03:11:15.603Z,10.10
2022-12-03T03:13:41.916Z,8.55
2022-12-03T03:16:08.587Z,11.15
2022-12-03T03:18:36.427Z,8.40
2022-12-03T03:21:03.295Z,9.73
2022-12-03T03:23:29.611Z,8.20
2022-12-03T03:25:56.982Z,9.73
2022-12-03T03:28:23.720Z,9.60
2022-12-03T03:30:50.143Z,8.85
2022-12-03T03:33:16.641Z,10.10
2022-12-03T03:35:45.024Z,9.10
2022-12-03T03:38:11.419Z,10.90
2022-12-03T03:40:38.948Z,11.77
2022-12-03T03:43:05.542Z,9.35
2022-12-03T03:45:31.860Z,8.05
2022-12-03T03:47:59.152Z,11.10
2022-12-03T03:50:26.071Z,9.52
2022-12-03T03:52:54.592Z,6.78
2022-12-03T03:55:20.931Z,10.48
2022-12-03T03:57:47.707Z,11.43
2022-12-03T04:00:16.058Z,8.73
2022-12-03T04:02:42.595Z,9.85
2022-12-03T04:05:11.151Z,10.40
2022-12-03T04:07:37.427Z,11.15
2022-12-03T04:10:06.008Z,14.98
2022-12-03T04:12:32.296Z,8.52
2022-12-03T04:14:58.851Z,11.73
2022-12-03T04:17:25.171Z,9.43
2022-12-03T04:19:51.424Z,11.45
2022-12-03T04:22:17.703Z,12.25
2022-12-03T04:24:43.962Z,12.73
2022-12-03T04:27:11.616Z,9.82
2022-12-03T04:29:37.891Z,7.50
2022-12-03T04:32:04.356Z,7.28
2022-12-03T04:34:30.616Z,10.88
2022-12-03T04:36:56.928Z,10.52
2022-12-03T04:39:23.284Z,14.60
2022-12-03T04:41:49.588Z,8.70
2022-12-03T04:44:17.250Z,11.65
2022-12-03T04:46:43.540Z,11.13
2022-12-03T04:49:09.854Z,12.23
2022-12-03T04:51:36.181Z,13.00
2022-12-03T04:54:02.473Z,11.02
2022-12-03T04:56:28.761Z,13.77
2022-12-03T04:58:55.096Z,12.32
2022-12-03T05:01:22.841Z,9.20
2022-12-03T05:03:49.246Z,12.73
2022-12-03T05:06:15.519Z,9.45
2022-12-03T05:08:41.828Z,11.93
2022-12-03T05:11:08.100Z,12.23
2022-12-03T05:13:34.442Z,14.43
2022-12-03T05:16:00.717Z,11.77
2022-12-03T05:18:28.382Z,11.75
2022-12-03T05:20:54.796Z,15.43
2022-12-03T05:23:21.400Z,11.23
2022-12-03T05:25:47.691Z,8.52
2022-12-03T05:28:14.173Z,15.57
2022-12-03T05:30:40.677Z,12.98
2022-12-03T05:33:07.032Z,14.27
2022-12-03T05:35:34.729Z,16.30
2022-12-03T05:38:01.149Z,14.50
2022-12-03T05:40:27.477Z,11.60
2022-12-03T05:42:53.853Z,15.98
2022-12-03T05:45:20.509Z,14.43
2022-12-03T05:47:46.886Z,16.48
2022-12-03T05:50:13.183Z,14.85
2022-12-03T05:52:40.854Z,14.30
2022-12-03T05:55:07.816Z,13.25
2022-12-03T05:57:34.116Z,13.60
2022-12-03T06:00:00.393Z,15.48
2022-12-03T06:02:26.783Z,15.68
2022-12-03T06:04:53.470Z,14.43
2022-12-03T06:07:19.992Z,14.98
2022-12-03T06:09:47.686Z,15.77
2022-12-03T06:12:14.037Z,14.55
2022-12-03T06:14:40.326Z,13.00
2022-12-03T06:17:06.625Z,16.17
2022-12-03T06:19:32.919Z,14.95
2022-12-03T06:21:59.203Z,14.77
2022-12-03T06:24:25.522Z,13.23
2022-12-03T06:26:53.187Z,16.05
2022-12-03T06:29:19.486Z,13.20
2022-12-03T06:31:45.877Z,13.90
2022-12-03T06:34:12.258Z,16.60
2022-12-03T06:36:38.577Z,17.65
2022-12-03T06:39:04.982Z,14.95
2022-12-03T06:41:31.260Z,13.05
2022-12-03T06:43:59.015Z,18.20
2022-12-03T06:46:25.418Z,17.23
2022-12-03T06:48:51.775Z,12.40
2022-12-03T06:51:18.117Z,12.98
2022-12-03T06:53:44.483Z,14.88
2022-12-03T06:56:10.779Z,14.23
2022-12-03T06:58:37.095Z,14.18
2022-12-03T07:01:04.903Z,11.30
2022-12-03T07:03:31.314Z,14.40
2022-12-03T07:05:57.600Z,14.10
2022-12-03T07:08:23.914Z,18.60
2022-12-03T07:10:50.191Z,12.65
2022-12-03T07:13:16.504Z,11.35
2022-12-03T07:15:42.885Z,15.73
2022-12-03T07:18:11.124Z,16.58
2022-12-03T07:20:37.995Z,12.50
2022-12-03T07:23:04.364Z,10.20
2022-12-03T07:25:30.706Z,14.90
2022-12-03T07:27:57.019Z,13.30
2022-12-03T07:30:23.315Z,15.07
2022-12-03T07:32:49.607Z,14.77
2022-12-03T07:35:17.252Z,11.43
2022-12-03T07:37:43.573Z,13.45
2022-12-03T07:40:10.679Z,14.73
2022-12-03T07:42:37.021Z,13.98
2022-12-03T07:45:03.458Z,15.65
2022-12-03T07:47:29.771Z,11.50
2022-12-03T07:49:56.085Z,10.23
2022-12-03T07:52:23.724Z,14.23
2022-12-03T07:54:50.100Z,13.90
2022-12-03T07:57:16.356Z,15.38
2022-12-03T07:59:42.641Z,15.57
2022-12-03T08:02:08.905Z,13.25
2022-12-03T08:04:35.240Z,17.17
2022-12-03T08:07:01.557Z,12.77
2022-12-03T08:09:29.177Z,16.00
2022-12-03T08:11:55.480Z,14.82
2022-12-03T08:14:21.761Z,10.48
2022-12-03T08:16:48.467Z,10.02
2022-12-03T08:19:15.691Z,15.13
2022-12-03T08:21:42.105Z,14.77
2022-12-03T08:24:12.497Z,14.77
2022-12-03T08:26:40.170Z,13.43
2022-12-03T08:29:08.565Z,15.32
2022-12-03T08:31:34.974Z,14.95
2022-12-03T08:34:17.875Z,13.90
2022-12-03T08:36:44.441Z,14.18
2022-12-03T08:39:18.387Z,13.50
2022-12-03T08:41:48.222Z,14.02
2022-12-03T08:44:25.874Z,11.07
2022-12-03T08:46:53.162Z,14.15
2022-12-03T08:49:20.654Z,14.68
2022-12-03T08:51:46.962Z,15.43
2022-12-03T08:54:19.294Z,14.60
2022-12-03T08:56:46.943Z,14.43
2022-12-03T08:59:21.059Z,14.85
2022-12-03T09:01:48.450Z,12.25
2022-12-03T09:04:17.046Z,13.05
2022-12-03T09:06:43.473Z,15.52
2022-12-03T09:09:09.791Z,14.82
2022-12-03T09:11:36.221Z,10.70
2022-12-03T09:14:04.075Z,12.35
2022-12-03T09:16:30.608Z,14.77
2022-12-03T09:18:57.347Z,12.55
2022-12-03T09:21:23.620Z,12.52
2022-12-03T09:23:49.875Z,13.82
2022-12-03T09:26:16.131Z,15.27
2022-12-03T09:28:42.403Z,12.60
2022-12-03T09:31:10.043Z,14.48
2022-12-03T09:33:36.307Z,8.57
2022-12-03T09:36:02.615Z,12.32
2022-12-03T09:38:28.981Z,14.82
2022-12-03T09:40:55.342Z,11.93
2022-12-03T09:43:21.858Z,11.10
2022-12-03T09:45:48.594Z,10.70
2022-12-03T09:48:18.003Z,16.13
2022-12-03T09:50:44.554Z,12.45
2022-12-03T09:53:13.091Z,15.65
2022-12-03T09:55:39.607Z,10.88
2022-12-03T09:58:09.770Z,11.77
2022-12-03T10:00:36.055Z,11.65
2022-12-03T10:03:03.244Z,13.25
2022-12-03T10:05:30.875Z,13.07
2022-12-03T10:08:02.950Z,11.40
2022-12-03T10:10:29.339Z,13.20
2022-12-03T10:12:55.704Z,15.20
2022-12-03T10:15:22.615Z,11.35
2022-12-03T10:17:50.619Z,9.60
2022-12-03T10:20:18.072Z,11.48
2022-12-03T10:22:46.187Z,10.48
2022-12-03T10:25:13.482Z,10.23
2022-12-03T10:27:40.252Z,11.48
2022-12-03T10:30:14.204Z,9.25
2022-12-03T10:32:41.413Z,10.57
2022-12-03T10:35:09.315Z,9.32
2022-12-03T10:37:35.593Z,10.23
2022-12-03T10:40:04.660Z,9.93
2022-12-03T10:42:31.795Z,10.00
2022-12-03T10:45:22.148Z,10.43
2022-12-03T10:48:02.131Z,8.90
2022-12-03T10:50:28.617Z,9.57
2022-12-03T10:52:54.917Z,10.38
2022-12-03T10:55:22.525Z,10.75
2022-12-03T10:57:48.868Z,10.70
2022-12-03T11:00:15.999Z,9.82
2022-12-03T11:02:42.316Z,10.10
2022-12-03T11:05:12.761Z,9.45
2022-12-03T11:07:39.130Z,9.73
2022-12-03T11:10:12.428Z,12.23
2022-12-03T11:12:40.128Z,9.05
2022-12-03T11:15:07.028Z,7.82
2022-12-03T11:17:41.172Z,7.43
2022-12-03T11:20:09.797Z,9.93
2022-12-03T11:22:40.142Z,10.68
2022-12-03T11:25:24.476Z,10.35
2022-12-03T11:28:05.638Z,9.88
2022-12-03T11:30:46.851Z,10.13
2022-12-03T11:33:21.893Z,10.20
2022-12-03T11:36:05.513Z,10.07
2022-12-03T11:38:53.360Z,13.13
2022-12-03T11:41:21.637Z,10.18
2022-12-03T11:44:01.905Z,9.80
2022-12-03T11:46:30.825Z,15.27
2022-12-03T11:48:59.155Z,14.32
2022-12-03T11:51:26.765Z,10.00
2022-12-03T11:53:55.915Z,10.38
2022-12-03T11:58:48.381Z,11.65
2022-12-03T12:01:15.357Z,10.55
2022-12-03T12:03:42.823Z,12.95
2022-12-03T12:06:11.217Z,10.50
2022-12-03T12:08:38.501Z,11.73
2022-12-03T12:11:15.928Z,8.13
2022-12-03T12:13:52.421Z,11.35
2022-12-03T12:16:37.430Z,10.80
2022-12-03T12:19:18.603Z,10.38
2022-12-03T12:21:46.611Z,12.90
2022-12-03T12:24:29.397Z,12.88
2022-12-03T12:26:55.989Z,10.13
2022-12-03T12:29:22.256Z,9.95
2022-12-03T12:31:53.642Z,9.57
2022-12-03T12:34:20.369Z,15.35
2022-12-03T12:36:48.033Z,13.32
2022-12-03T12:41:42.343Z,11.45
2022-12-03T12:44:09.347Z,15.35
2022-12-03T12:46:47.852Z,10.82
2022-12-03T12:49:15.406Z,9.13
2022-12-03T12:51:43.786Z,9.55
2022-12-03T12:54:12.403Z,13.93
2022-12-03T12:56:38.687Z,11.30
2022-12-03T12:59:10.334Z,11.75
2022-12-03T13:01:36.785Z,11.35
2022-12-03T13:04:06.787Z,10.07
2022-12-03T13:06:34.327Z,12.80
2022-12-03T13:09:00.606Z,16.60
2022-12-03T13:11:33.334Z,15.02
2022-12-03T13:14:01.034Z,15.27
2022-12-03T13:16:28.488Z,11.43
2022-12-03T13:18:56.191Z,11.40
2022-12-03T13:21:24.331Z,11.75
2022-12-03T13:23:52.286Z,13.38
2022-12-03T13:26:32.861Z,10.85
2022-12-03T13:29:06.668Z,14.13
2022-12-03T13:31:34.165Z,10.88
2022-12-03T13:34:01.443Z,15.38
2022-12-03T13:36:34.984Z,14.10
2022-12-03T13:39:01.867Z,12.07
2022-12-03T13:41:28.156Z,14.88
2022-12-03T13:43:54.412Z,13.85
2022-12-03T13:46:22.207Z,10.93
2022-12-03T13:48:48.582Z,14.60
2022-12-03T13:51:19.853Z,12.80
2022-12-03T13:53:46.105Z,14.05
2022-12-03T13:56:18.749Z,13.13
2022-12-03T13:58:44.984Z,12.38
2022-12-03T14:01:11.277Z,13.38
2022-12-03T14:03:38.932Z,15.10
2022-12-03T14:06:05.417Z,10.30
2022-12-03T14:08:31.698Z,11.38
2022-12-03T14:11:00.413Z,10.82
2022-12-03T14:13:27.309Z,11.88
2022-12-03T14:15:53.611Z,15.27
2022-12-03T14:18:19.899Z,12.50
2022-12-03T14:20:47.502Z,15.10
2022-12-03T14:23:14.676Z,14.15
2022-12-03T14:25:40.925Z,14.15
2022-12-03T14:28:07.174Z,12.98
2022-12-03T14:30:33.458Z,17.58
2022-12-03T14:32:59.730Z,11.85
2022-12-03T14:35:26.021Z,16.13
2022-12-03T14:37:53.650Z,17.38
2022-12-03T14:40:22.031Z,15.45
2022-12-03T14:42:48.634Z,12.35
2022-12-03T14:45:17.435Z,14.57
2022-12-03T14:47:47.029Z,13.27
2022-12-03T14:50:13.429Z,13.65
2022-12-03T14:52:39.734Z,12.38
2022-12-03T14:55:07.860Z,14.50
2022-12-03T14:57:36.542Z,12.70
2022-12-03T15:00:03.392Z,17.10
2022-12-03T15:02:29.792Z,15.05
2022-12-03T15:04:56.135Z,17.47
2022-12-03T15:07:22.398Z,16.80
2022-12-03T15:09:48.656Z,15.63
2022-12-03T15:12:16.275Z,15.25
2022-12-03T15:14:42.534Z,16.88
2022-12-03T15:17:08.877Z,15.60
2022-12-03T15:19:35.149Z,19.10
2022-12-03T15:22:01.503Z,13.45
2022-12-03T15:24:27.843Z,16.65
2022-12-03T15:26:54.095Z,14.02
2022-12-03T15:29:21.702Z,14.85
2022-12-03T15:31:48.105Z,19.92
2022-12-03T15:34:20.452Z,18.00
2022-12-03T15:36:48.608Z,18.15
2022-12-03T15:39:14.848Z,14.80
2022-12-03T15:41:41.109Z,14.85
2022-12-03T15:44:07.419Z,16.80
2022-12-03T15:46:35.170Z,16.77
2022-12-03T15:49:01.475Z,16.50
2022-12-03T15:51:27.799Z,15.25
2022-12-03T15:53:54.047Z,15.70
2022-12-03T15:56:20.354Z,15.45
2022-12-03T15:58:46.666Z,18.98
2022-12-03T16:01:13.060Z,15.88
2022-12-03T16:03:40.766Z,19.30
2022-12-03T16:06:07.383Z,14.13
2022-12-03T16:08:33.639Z,19.60
2022-12-03T16:10:59.939Z,15.43
2022-12-03T16:13:26.228Z,18.55
2022-12-03T16:15:52.596Z,20.38
2022-12-03T16:18:18.939Z,23.48
2022-12-03T16:20:46.597Z,16.63
2022-12-03T16:23:12.947Z,22.67
2022-12-03T16:25:39.263Z,16.20
2022-12-03T16:28:05.795Z,17.35
2022-12-03T16:30:32.076Z,19.15
2022-12-03T16:32:58.340Z,19.05
2022-12-03T16:35:24.713Z,16.95
2022-12-03T16:37:52.300Z,19.60
2022-12-03T16:40:18.615Z,22.30
2022-12-03T16:42:44.861Z,19.13
2022-12-03T16:45:11.272Z,18.27
2022-12-03T16:47:37.993Z,19.13
2022-12-03T16:50:04.874Z,20.60
2022-12-03T16:52:31.180Z,20.17
2022-12-03T16:54:58.850Z,20.90
2022-12-03T16:57:30.229Z,19.13
2022-12-03T16:59:59.644Z,19.65
2022-12-03T17:02:25.980Z,21.95
2022-12-03T17:04:52.344Z,19.85
2022-12-03T17:07:18.604Z,21.30
2022-12-03T17:09:44.892Z,16.85
2022-12-03T17:12:12.477Z,18.25
2022-12-03T17:14:38.791Z,16.35
2022-12-03T17:17:05.098Z,21.35
2022-12-03T17:19:31.465Z,21.27
2022-12-03T17:21:58.702Z,19.33
2022-12-03T17:24:25.013Z,19.85
2022-12-03T17:26:51.317Z,14.82
2022-12-03T17:29:20.193Z,17.10
2022-12-03T17:31:46.505Z,20.02
2022-12-03T17:34:12.814Z,21.70
2022-12-03T17:36:39.094Z,18.25
2022-12-03T17:39:05.390Z,21.08
2022-12-03T17:41:31.689Z,21.20
2022-12-03T17:43:57.998Z,21.02
2022-12-03T17:46:25.687Z,20.63
2022-12-03T17:48:52.013Z,19.60
2022-12-03T17:51:18.290Z,20.10
2022-12-03T17:53:44.557Z,16.73
2022-12-03T17:56:10.822Z,17.75
2022-12-03T17:58:37.130Z,23.35
2022-12-03T18:01:03.590Z,22.75
2022-12-03T18:03:31.317Z,16.02
2022-12-03T18:05:57.718Z,17.58
2022-12-03T18:08:24.030Z,18.38
2022-12-03T18:10:50.335Z,21.48
2022-12-03T18:13:16.674Z,17.23
2022-12-03T18:15:43.151Z,19.10
2022-12-03T18:18:09.587Z,17.00
2022-12-03T18:20:37.450Z,15.90
2022-12-03T18:23:03.787Z,14.75
2022-12-03T18:25:30.215Z,13.77
2022-12-03T18:27:56.572Z,15.95
2022-12-03T18:30:22.974Z,14.90
2022-12-03T18:32:49.272Z,13.85
2022-12-03T18:35:15.538Z,16.73
2022-12-03T18:37:43.290Z,14.63
2022-12-03T18:40:16.082Z,15.32
2022-12-03T18:42:42.343Z,13.85
2022-12-03T18:45:11.015Z,13.43
2022-12-03T18:47:37.333Z,14.90
2022-12-03T18:50:03.964Z,17.58
2022-12-03T18:52:30.278Z,15.68
2022-12-03T18:54:57.870Z,14.27
2022-12-03T18:57:24.143Z,17.23
2022-12-03T18:59:50.390Z,16.08
2022-12-03T19:02:46.118Z,13.63
2022-12-03T19:05:04.392Z,14.32
2022-12-03T19:07:30.736Z,14.35
2022-12-03T19:09:58.473Z,12.65
2022-12-03T19:12:24.799Z,14.50
2022-12-03T19:14:51.248Z,14.73
2022-12-03T19:17:17.575Z,16.42
2022-12-03T19:19:43.894Z,14.32
2022-12-03T19:22:10.139Z,13.30
2022-12-03T19:24:36.416Z,15.95
2022-12-03T19:27:04.159Z,15.48
2022-12-03T19:29:30.444Z,17.15
2022-12-03T19:31:56.802Z,12.13
2022-12-03T19:34:23.145Z,12.85
2022-12-03T19:36:49.437Z,16.80
2022-12-03T19:39:15.752Z,14.10
2022-12-03T19:41:42.064Z,13.35
2022-12-03T19:44:12.156Z,16.58
2022-12-03T19:46:38.456Z,12.50
2022-12-03T19:49:04.732Z,12.38
2022-12-03T19:51:35.634Z,14.38
2022-12-03T19:54:02.500Z,14.07
2022-12-03T19:56:28.761Z,12.75
2022-12-03T19:58:55.355Z,13.25
2022-12-03T20:01:23.787Z,13.40
2022-12-03T20:03:50.983Z,15.35
2022-12-03T20:06:18.092Z,15.38
2022-12-03T20:08:44.807Z,12.65
2022-12-03T20:11:12.278Z,14.88
2022-12-03T20:13:38.761Z,15.23
2022-12-03T20:16:05.382Z,15.18
2022-12-03T20:18:33.133Z,15.10
2022-12-03T20:20:59.685Z,12.27
2022-12-03T20:23:25.958Z,14.85
2022-12-03T20:25:52.242Z,12.75
2022-12-03T20:28:18.638Z,19.40
2022-12-03T20:30:44.942Z,14.23
2022-12-03T20:33:11.221Z,17.83
2022-12-03T20:35:38.963Z,14.27
2022-12-03T20:38:05.418Z,15.73
2022-12-03T20:40:35.105Z,12.23
2022-12-03T20:43:01.412Z,13.48
2022-12-03T20:45:27.757Z,14.50
2022-12-03T20:47:54.144Z,16.60
2022-12-03T20:50:20.430Z,12.85
2022-12-03T20:53:09.403Z,15.98
2022-12-03T20:55:34.362Z,13.73
2022-12-03T20:58:00.645Z,14.50
2022-12-03T21:00:27.295Z,14.35
2022-12-03T21:02:53.730Z,13.07
2022-12-03T21:05:20.083Z,15.75
2022-12-03T21:07:49.097Z,11.52
2022-12-03T21:10:15.493Z,10.50
2022-12-03T21:12:41.779Z,13.82
2022-12-03T21:15:08.194Z,12.10
2022-12-03T21:17:34.544Z,13.98
2022-12-03T21:20:01.003Z,14.10
2022-12-03T21:22:27.335Z,12.88
2022-12-03T21:24:54.936Z,15.38
2022-12-03T21:27:21.953Z,14.60
2022-12-03T21:29:48.420Z,18.35
2022-12-03T21:32:14.681Z,16.42
2022-12-03T21:34:40.943Z,16.60
2022-12-03T21:37:07.264Z,11.93
2022-12-03T21:39:33.625Z,18.17
2022-12-03T21:42:33.959Z,14.25
2022-12-03T21:44:47.525Z,16.48
2022-12-03T21:47:14.680Z,14.10
2022-12-03T21:49:41.475Z,17.77
2022-12-03T21:52:07.809Z,13.95
2022-12-03T21:54:34.110Z,17.35
2022-12-03T21:57:01.734Z,17.73
2022-12-03T21:59:28.073Z,15.18
2022-12-03T22:01:54.416Z,17.45
2022-12-03T22:04:20.698Z,14.50
2022-12-03T22:06:46.988Z,15.90
2022-12-03T22:09:13.255Z,18.35
2022-12-03T22:11:39.530Z,17.42
2022-12-03T22:14:07.294Z,17.65
2022-12-03T22:16:33.698Z,20.45
2022-12-03T22:19:00.004Z,18.08
2022-12-03T22:21:26.310Z,12.27
2022-12-03T22:23:52.598Z,14.30
2022-12-03T22:26:18.899Z,18.10
2022-12-03T22:28:45.879Z,18.35
2022-12-03T22:31:13.978Z,17.33
2022-12-03T22:33:40.447Z,16.58
2022-12-03T22:36:07.482Z,20.40
2022-12-03T22:38:33.778Z,18.20
2022-12-03T22:41:03.809Z,17.02
2022-12-03T22:43:30.092Z,14.80
2022-12-03T22:45:56.456Z,16.50
2022-12-03T22:48:24.275Z,17.67
2022-12-03T22:50:51.157Z,16.45
2022-12-03T22:53:17.780Z,19.77
2022-12-03T22:55:44.108Z,18.27
2022-12-03T22:58:10.939Z,16.85
2022-12-03T23:00:38.247Z,16.70
2022-12-03T23:03:04.628Z,19.77
2022-12-03T23:05:33.099Z,16.95
2022-12-03T23:07:59.542Z,18.65
2022-12-03T23:10:30.931Z,16.75
2022-12-03T23:12:58.871Z,20.98
2022-12-03T23:15:25.119Z,17.50
2022-12-03T23:17:51.372Z,15.05
2022-12-03T23:20:17.751Z,20.55
2022-12-03T23:22:45.404Z,18.08
2022-12-03T23:25:11.926Z,17.85
2022-12-03T23:27:38.219Z,17.52
2022-12-03T23:30:05.112Z,15.68
2022-12-03T23:32:31.377Z,21.30
2022-12-03T23:34:57.664Z,15.73
2022-12-03T23:37:23.952Z,17.35
2022-12-03T23:39:51.706Z,19.63
2022-12-03T23:42:18.233Z,19.50
2022-12-03T23:44:44.563Z,16.77
2022-12-03T23:47:10.871Z,16.05
2022-12-03T23:49:37.226Z,16.30
2022-12-03T23:52:03.716Z,23.33
2022-12-03T23:54:30.016Z,17.80
2022-12-03T23:56:57.657Z,13.27
2022-12-03T23:59:23.910Z,20.27
